createdAt,value
2018-07-13T00:00:21.582Z,10.00
2018-07-13T00:02:50.769Z,11.30
2018-07-13T00:05:19.984Z,11.57
2018-07-13T00:07:49.165Z,9.90
2018-07-13T00:10:18.283Z,9.73
2018-07-13T00:12:47.532Z,9.40
2018-07-13T00:15:16.683Z,11.23
2018-07-13T00:17:45.939Z,9.30
2018-07-13T00:20:15.154Z,12.50
2018-07-13T00:22:44.338Z,11.43
2018-07-13T00:25:13.503Z,9.67
2018-07-13T00:27:42.669Z,11.30
2018-07-13T00:30:11.836Z,11.77
2018-07-13T00:32:40.973Z,13.13
2018-07-13T00:35:10.084Z,11.23
2018-07-13T00:37:39.230Z,9.17
2018-07-13T00:40:08.363Z,9.17
2018-07-13T00:42:37.487Z,11.87
2018-07-13T00:45:06.661Z,10.23
2018-07-13T00:47:35.767Z,21.70
2018-07-13T00:50:04.764Z,9.60
2018-07-13T00:52:33.886Z,10.37
2018-07-13T00:55:03.070Z,17.00
2018-07-13T00:57:32.776Z,16.13
2018-07-13T01:00:01.969Z,11.50
2018-07-13T01:02:31.220Z,21.23
2018-07-13T01:05:00.384Z,15.77
2018-07-13T01:07:29.559Z,15.00
2018-07-13T01:09:58.708Z,18.47
2018-07-13T01:12:27.861Z,23.23
2018-07-13T01:14:58.065Z,21.50
2018-07-13T01:17:27.206Z,22.57
2018-07-13T01:19:56.378Z,20.03
2018-07-13T01:22:25.505Z,17.17
2018-07-13T01:24:54.661Z,18.40
2018-07-13T01:27:28.106Z,16.93
2018-07-13T01:29:58.152Z,17.87
2018-07-13T01:32:27.762Z,26.03
2018-07-13T01:34:59.392Z,21.33
2018-07-13T01:37:28.530Z,18.50
2018-07-13T01:39:57.714Z,22.07
2018-07-13T01:42:27.092Z,21.43
2018-07-13T01:44:56.217Z,22.13
2018-07-13T01:47:25.374Z,19.00
2018-07-13T01:49:54.560Z,20.60
2018-07-13T01:52:24.396Z,24.13
2018-07-13T01:54:54.507Z,22.47
2018-07-13T01:57:23.641Z,24.33
2018-07-13T01:59:52.847Z,34.03
2018-07-13T02:02:21.996Z,31.53
2018-07-13T02:04:51.123Z,26.93
2018-07-13T02:07:20.292Z,26.80
2018-07-13T02:09:52.041Z,23.77
2018-07-13T02:12:21.300Z,23.93
2018-07-13T02:14:50.758Z,21.00
2018-07-13T02:17:19.892Z,23.80
2018-07-13T02:19:49.087Z,26.90
2018-07-13T02:22:18.048Z,29.90
2018-07-13T02:24:47.301Z,25.20
2018-07-13T02:27:17.190Z,27.87
2018-07-13T02:29:46.311Z,24.00
2018-07-13T02:32:15.444Z,27.30
2018-07-13T02:34:44.596Z,27.17
2018-07-13T02:37:13.733Z,31.13
2018-07-13T02:39:48.763Z,29.43
2018-07-13T02:42:17.895Z,25.23
2018-07-13T02:44:47.053Z,29.23
2018-07-13T02:47:16.225Z,23.27
2018-07-13T02:49:45.396Z,22.17
2018-07-13T02:52:14.552Z,31.93
2018-07-13T02:54:43.729Z,36.23
2018-07-13T02:57:12.884Z,34.47
2018-07-13T02:59:42.022Z,30.80
2018-07-13T03:02:11.133Z,27.90
2018-07-13T03:04:40.248Z,26.80
2018-07-13T03:07:09.411Z,31.67
2018-07-13T03:09:38.557Z,25.43
2018-07-13T03:12:07.827Z,31.30
2018-07-13T03:14:36.956Z,38.13
2018-07-13T03:17:06.111Z,27.00
2018-07-13T03:19:35.308Z,32.50
2018-07-13T03:22:04.502Z,26.90
2018-07-13T03:24:33.659Z,29.67
2018-07-13T03:27:02.790Z,28.43
2018-07-13T03:29:31.947Z,30.27
2018-07-13T03:32:01.126Z,26.57
2018-07-13T03:34:30.327Z,28.80
2018-07-13T03:36:59.488Z,27.27
2018-07-13T03:39:28.595Z,28.30
2018-07-13T03:41:57.707Z,27.23
2018-07-13T03:44:26.834Z,24.33
2018-07-13T03:46:56.052Z,23.83
2018-07-13T03:49:25.206Z,31.57
2018-07-13T03:51:54.397Z,24.73
2018-07-13T03:54:23.570Z,21.17
2018-07-13T03:56:52.713Z,22.00
2018-07-13T03:59:21.867Z,23.53
2018-07-13T04:01:51.033Z,25.30
2018-07-13T04:04:20.225Z,21.37
2018-07-13T04:06:49.381Z,22.03
2018-07-13T04:09:18.630Z,36.73
2018-07-13T04:11:47.774Z,21.60
2018-07-13T04:14:16.912Z,24.27
2018-07-13T04:16:46.077Z,21.87
2018-07-13T04:19:15.171Z,18.80
2018-07-13T04:21:44.312Z,21.63
2018-07-13T04:24:13.433Z,22.97
2018-07-13T04:26:45.275Z,25.40
2018-07-13T04:29:14.406Z,20.37
2018-07-13T04:31:43.547Z,19.63
2018-07-13T04:34:12.761Z,24.50
2018-07-13T04:36:41.922Z,21.50
2018-07-13T04:39:12.659Z,23.07
2018-07-13T04:41:42.037Z,17.50
2018-07-13T04:44:11.155Z,20.23
2018-07-13T04:46:40.326Z,17.60
2018-07-13T04:49:09.479Z,25.43
2018-07-13T04:51:38.631Z,21.20
2018-07-13T04:54:07.792Z,18.50
2018-07-13T04:56:36.917Z,18.07
2018-07-13T04:59:06.189Z,22.17
2018-07-13T05:01:35.293Z,16.57
2018-07-13T05:04:04.440Z,24.50
2018-07-13T05:06:40.354Z,17.67
2018-07-13T05:09:09.902Z,22.73
2018-07-13T05:11:39.071Z,32.50
2018-07-13T05:14:08.170Z,18.33
2018-07-13T05:16:37.299Z,17.43
2018-07-13T05:19:06.512Z,25.13
2018-07-13T05:21:35.647Z,22.13
2018-07-13T05:24:04.735Z,22.27
2018-07-13T05:26:33.860Z,15.90
2018-07-13T05:29:03.004Z,25.57
2018-07-13T05:31:32.110Z,18.30
2018-07-13T05:34:01.254Z,21.80
2018-07-13T05:36:30.394Z,25.93
2018-07-13T05:38:59.543Z,24.53
2018-07-13T05:41:28.652Z,26.47
2018-07-13T05:43:57.796Z,43.43
2018-07-13T05:46:26.973Z,37.27
2018-07-13T05:48:56.120Z,24.77
2018-07-13T05:51:28.911Z,32.07
2018-07-13T05:53:57.884Z,35.60
2018-07-13T05:56:27.039Z,23.63
2018-07-13T05:58:56.315Z,19.63
2018-07-13T06:01:25.448Z,19.20
2018-07-13T06:03:54.614Z,17.73
2018-07-13T06:06:23.787Z,28.70
2018-07-13T06:08:53.017Z,16.47
2018-07-13T06:11:22.148Z,22.63
2018-07-13T06:13:51.313Z,15.47
2018-07-13T06:16:20.476Z,14.87
2018-07-13T06:18:49.625Z,24.23
2018-07-13T06:21:18.751Z,14.50
2018-07-13T06:23:47.937Z,12.63
2018-07-13T06:26:17.078Z,11.77
2018-07-13T06:28:46.207Z,14.10
2018-07-13T06:31:15.347Z,14.70
2018-07-13T06:33:44.484Z,16.73
2018-07-13T06:36:13.629Z,17.93
2018-07-13T06:38:42.818Z,22.07
2018-07-13T06:41:11.935Z,17.70
2018-07-13T06:43:41.161Z,19.90
2018-07-13T06:46:10.331Z,18.27
2018-07-13T06:48:39.478Z,18.27
2018-07-13T06:51:08.720Z,15.43
2018-07-13T06:53:38.066Z,20.57
2018-07-13T06:56:07.230Z,19.10
2018-07-13T06:58:53.589Z,25.83
2018-07-13T07:01:22.754Z,27.63
2018-07-13T07:04:26.579Z,22.63
2018-07-13T07:06:56.252Z,27.33
2018-07-13T07:09:26.448Z,25.83
2018-07-13T07:13:09.515Z,29.30
2018-07-13T07:15:38.976Z,47.83
2018-07-13T07:18:08.157Z,31.20
2018-07-13T07:20:37.296Z,41.20
2018-07-13T07:23:06.459Z,36.47
2018-07-13T07:25:35.615Z,37.00
2018-07-13T07:28:04.737Z,33.07
2018-07-13T07:30:33.896Z,49.63
2018-07-13T07:33:03.046Z,35.60
2018-07-13T07:35:32.199Z,38.70
2018-07-13T07:38:01.119Z,34.67
2018-07-13T07:40:30.542Z,48.53
2018-07-13T07:42:59.704Z,32.40
2018-07-13T07:45:28.847Z,32.33
2018-07-13T07:47:57.978Z,31.50
2018-07-13T07:50:27.088Z,25.87
2018-07-13T07:52:56.240Z,33.23
2018-07-13T07:55:25.388Z,30.43
2018-07-13T07:57:54.521Z,34.57
2018-07-13T08:00:23.666Z,30.63
2018-07-13T08:02:53.073Z,30.97
2018-07-13T08:05:22.209Z,34.07
2018-07-13T08:07:51.749Z,25.67
2018-07-13T08:10:20.934Z,26.30
2018-07-13T08:12:50.322Z,31.17
2018-07-13T08:15:19.482Z,26.23
2018-07-13T08:17:48.672Z,34.13
2018-07-13T08:20:24.564Z,35.77
2018-07-13T08:22:57.466Z,32.73
2018-07-13T08:25:27.579Z,36.20
2018-07-13T08:28:00.725Z,34.50
2018-07-13T08:30:43.256Z,35.63
2018-07-13T08:33:12.602Z,39.43
2018-07-13T08:35:41.717Z,41.00
2018-07-13T08:38:10.855Z,36.00
2018-07-13T08:40:40.037Z,40.40
2018-07-13T08:43:09.161Z,36.93
2018-07-13T08:45:38.291Z,39.17
2018-07-13T08:48:07.493Z,37.80
2018-07-13T08:50:36.684Z,32.73
2018-07-13T08:53:05.989Z,29.67
2018-07-13T08:55:35.121Z,25.13
2018-07-13T08:58:04.285Z,23.70
2018-07-13T09:00:33.470Z,17.07
2018-07-13T09:03:02.580Z,16.63
2018-07-13T09:05:31.759Z,14.97
2018-07-13T09:08:00.913Z,17.63
2018-07-13T09:10:30.037Z,13.73
2018-07-13T09:12:59.358Z,23.53
2018-07-13T09:15:28.416Z,16.30
2018-07-13T09:17:57.575Z,18.43
2018-07-13T09:20:26.702Z,21.30
2018-07-13T09:22:55.821Z,20.40
2018-07-13T09:25:24.984Z,16.57
2018-07-13T09:27:54.116Z,15.17
2018-07-13T09:30:23.261Z,15.73
2018-07-13T09:32:52.411Z,15.20
2018-07-13T09:35:21.517Z,16.70
2018-07-13T09:37:50.818Z,15.00
2018-07-13T09:40:19.929Z,13.20
2018-07-13T09:42:49.074Z,15.30
2018-07-13T09:45:18.244Z,13.93
2018-07-13T09:47:47.433Z,12.60
2018-07-13T09:50:16.586Z,13.23
2018-07-13T09:52:45.727Z,13.63
2018-07-13T09:55:14.875Z,12.43
2018-07-13T09:57:44.017Z,12.00
2018-07-13T10:00:13.925Z,14.37
2018-07-13T10:02:42.872Z,11.47
2018-07-13T10:05:12.351Z,12.33
2018-07-13T10:07:41.525Z,10.40
2018-07-13T10:10:10.941Z,11.13
2018-07-13T10:12:40.258Z,26.80
2018-07-13T10:15:09.779Z,12.97
2018-07-13T10:17:38.975Z,11.10
2018-07-13T10:20:08.133Z,9.13
2018-07-13T10:22:37.692Z,12.43
2018-07-13T10:25:06.927Z,14.57
2018-07-13T10:27:38.683Z,17.60
2018-07-13T10:30:11.908Z,18.70
2018-07-13T10:32:42.763Z,21.00
2018-07-13T10:35:11.936Z,23.10
2018-07-13T10:37:42.070Z,22.57
2018-07-13T10:40:12.124Z,25.13
2018-07-13T10:42:41.362Z,20.60
2018-07-13T10:45:10.457Z,30.57
2018-07-13T10:47:39.575Z,25.50
2018-07-13T10:50:08.768Z,21.20
2018-07-13T10:52:37.880Z,17.80
2018-07-13T10:55:07.100Z,22.70
2018-07-13T10:57:36.274Z,23.10
2018-07-13T11:00:05.400Z,20.27
2018-07-13T11:02:34.520Z,21.77
2018-07-13T11:05:03.657Z,24.13
2018-07-13T11:07:33.000Z,28.33
2018-07-13T11:10:02.161Z,23.40
2018-07-13T11:12:31.301Z,24.63
2018-07-13T11:15:00.512Z,29.77
2018-07-13T11:17:29.656Z,29.90
2018-07-13T11:19:58.849Z,31.97
2018-07-13T11:22:28.020Z,28.60
2018-07-13T11:24:57.177Z,32.40
2018-07-13T11:27:26.370Z,33.63
2018-07-13T11:29:55.509Z,34.10
2018-07-13T11:32:24.624Z,34.63
2018-07-13T11:34:53.763Z,43.53
2018-07-13T11:37:23.002Z,31.13
2018-07-13T11:39:52.162Z,27.37
2018-07-13T11:42:21.352Z,29.80
2018-07-13T11:44:50.496Z,31.77
2018-07-13T11:47:19.833Z,33.50
2018-07-13T11:49:49.201Z,31.87
2018-07-13T11:52:18.383Z,39.47
2018-07-13T11:54:47.537Z,40.13
2018-07-13T11:57:16.636Z,40.53
2018-07-13T11:59:45.779Z,38.33
2018-07-13T12:02:14.940Z,38.73
2018-07-13T12:04:44.106Z,43.23
2018-07-13T12:07:13.244Z,41.17
2018-07-13T12:09:42.432Z,35.10
2018-07-13T12:12:11.557Z,37.33
2018-07-13T12:14:40.713Z,36.20
2018-07-13T12:17:09.836Z,43.93
2018-07-13T12:19:38.819Z,33.90
2018-07-13T12:22:07.959Z,25.27
2018-07-13T12:24:37.129Z,28.37
2018-07-13T12:27:06.449Z,29.07
2018-07-13T12:29:35.556Z,30.83
2018-07-13T12:32:04.671Z,36.47
2018-07-13T12:34:33.811Z,33.47
2018-07-13T12:37:02.977Z,33.43
2018-07-13T12:39:32.175Z,34.37
2018-07-13T12:42:01.351Z,32.43
2018-07-13T12:44:31.480Z,27.00
2018-07-13T12:47:00.602Z,23.27
2018-07-13T12:49:29.751Z,29.20
2018-07-13T12:51:58.893Z,37.23
2018-07-13T12:54:28.181Z,31.83
2018-07-13T12:56:57.301Z,26.03
2018-07-13T12:59:26.567Z,27.17
2018-07-13T13:01:55.757Z,20.20
2018-07-13T13:04:24.935Z,23.13
2018-07-13T13:06:54.083Z,23.93
2018-07-13T13:09:23.250Z,21.37
2018-07-13T13:11:52.428Z,20.30
2018-07-13T13:14:21.605Z,23.70
2018-07-13T13:16:50.769Z,24.53
2018-07-13T13:19:20.077Z,22.10
2018-07-13T13:21:49.331Z,20.27
2018-07-13T13:24:18.452Z,26.60
2018-07-13T13:26:47.600Z,20.60
2018-07-13T13:29:16.756Z,25.33
2018-07-13T13:31:45.946Z,30.07
2018-07-13T13:34:15.089Z,26.50
2018-07-13T13:36:44.215Z,24.87
2018-07-13T13:39:13.470Z,23.63
2018-07-13T13:41:42.653Z,22.80
2018-07-13T13:44:11.824Z,25.10
2018-07-13T13:46:40.980Z,19.17
2018-07-13T13:49:10.290Z,19.73
2018-07-13T13:51:39.404Z,23.80
2018-07-13T13:54:08.515Z,19.70
2018-07-13T13:56:37.665Z,16.73
2018-07-13T13:59:06.851Z,27.17
2018-07-13T14:01:36.038Z,14.47
2018-07-13T14:04:05.184Z,21.10
2018-07-13T14:06:34.366Z,23.20
2018-07-13T14:09:04.548Z,21.30
2018-07-13T14:11:33.764Z,23.73
2018-07-13T14:14:02.905Z,20.43
2018-07-13T14:16:33.126Z,19.50
2018-07-13T14:19:02.304Z,11.47
2018-07-13T14:21:31.415Z,18.20
2018-07-13T14:24:00.591Z,17.07
2018-07-13T14:26:29.754Z,16.30
2018-07-13T14:28:58.941Z,18.83
2018-07-13T14:31:28.053Z,13.13
2018-07-13T14:33:57.188Z,12.43
2018-07-13T14:39:23.167Z,16.80
2018-07-13T14:41:52.346Z,11.50
2018-07-13T14:44:21.461Z,12.90
2018-07-13T14:46:50.719Z,11.10
2018-07-13T14:49:19.767Z,9.37
2018-07-13T14:51:48.918Z,12.70
2018-07-13T14:54:18.058Z,9.23
2018-07-13T14:56:47.204Z,6.83
2018-07-13T14:59:16.344Z,13.93
2018-07-13T15:01:45.449Z,13.60
2018-07-13T15:04:14.634Z,12.07
2018-07-13T15:06:43.736Z,9.07
2018-07-13T15:09:12.753Z,16.23
2018-07-13T15:11:41.896Z,9.03
2018-07-13T15:14:11.083Z,13.00
2018-07-13T15:16:40.275Z,15.63
2018-07-13T15:19:11.000Z,10.70
2018-07-13T15:21:40.180Z,10.00
2018-07-13T15:24:09.356Z,9.57
2018-07-13T15:26:38.507Z,12.43
2018-07-13T15:29:07.718Z,9.67
2018-07-13T15:31:36.818Z,8.73
2018-07-13T15:34:06.269Z,9.20
2018-07-13T15:36:35.442Z,16.33
2018-07-13T15:39:05.052Z,9.70
2018-07-13T15:41:34.168Z,9.60
2018-07-13T15:44:03.079Z,9.93
2018-07-13T15:46:32.323Z,19.27
2018-07-13T15:49:01.527Z,7.10
2018-07-13T15:51:30.725Z,6.93
2018-07-13T15:53:59.917Z,7.73
2018-07-13T15:56:29.062Z,12.10
2018-07-13T15:58:58.312Z,11.10
2018-07-13T16:01:27.409Z,7.97
2018-07-13T16:03:56.591Z,9.77
2018-07-13T16:06:25.830Z,7.83
2018-07-13T16:08:54.931Z,12.53
2018-07-13T16:11:23.859Z,9.80
2018-07-13T16:13:53.081Z,6.07
2018-07-13T16:16:22.222Z,10.10
2018-07-13T16:18:51.423Z,10.33
2018-07-13T16:21:20.548Z,16.40
2018-07-13T16:23:49.679Z,8.27
2018-07-13T16:26:18.814Z,10.57
2018-07-13T16:28:47.854Z,7.93
2018-07-13T16:31:17.025Z,9.40
2018-07-13T16:33:46.230Z,7.20
2018-07-13T16:36:15.376Z,9.87
2018-07-13T16:38:45.103Z,11.50
2018-07-13T16:41:14.272Z,9.87
2018-07-13T16:43:44.544Z,11.63
2018-07-13T16:46:13.701Z,12.17
2018-07-13T16:48:42.817Z,14.07
2018-07-13T16:51:11.964Z,17.57
2018-07-13T16:53:41.102Z,17.03
2018-07-13T16:56:10.272Z,16.17
2018-07-13T16:58:39.437Z,14.43
2018-07-13T17:01:08.584Z,20.17
2018-07-13T17:03:37.800Z,17.00
2018-07-13T17:06:06.879Z,19.47
2018-07-13T17:08:35.970Z,22.77
2018-07-13T17:11:05.094Z,21.90
2018-07-13T17:13:37.185Z,19.90
2018-07-13T17:16:06.583Z,21.30
2018-07-13T17:18:36.529Z,24.40
2018-07-13T17:21:05.643Z,23.67
2018-07-13T17:23:34.755Z,23.80
2018-07-13T17:26:03.914Z,24.40
2018-07-13T17:28:33.130Z,21.93
2018-07-13T17:31:02.247Z,24.90
2018-07-13T17:33:31.340Z,20.03
2018-07-13T17:36:00.475Z,23.23
2018-07-13T17:38:29.668Z,24.93
2018-07-13T17:40:58.845Z,24.50
2018-07-13T17:43:27.937Z,23.30
2018-07-13T17:45:57.046Z,24.40
2018-07-13T17:48:26.155Z,24.13
2018-07-13T17:50:55.286Z,22.73
2018-07-13T17:53:24.422Z,21.63
2018-07-13T17:55:53.562Z,16.20
2018-07-13T17:58:22.638Z,16.03
2018-07-13T18:00:51.951Z,14.13
2018-07-13T18:03:20.952Z,17.03
2018-07-13T18:05:50.055Z,19.70
2018-07-13T18:08:19.168Z,16.60
2018-07-13T18:10:48.293Z,18.17
2018-07-13T18:13:17.406Z,18.80
2018-07-13T18:15:46.509Z,20.80
2018-07-13T18:18:15.609Z,17.53
2018-07-13T18:20:44.724Z,16.63
2018-07-13T18:23:13.801Z,12.97
2018-07-13T18:25:42.910Z,14.03
2018-07-13T18:28:12.055Z,13.03
2018-07-13T18:30:41.102Z,15.50
2018-07-13T18:33:10.224Z,25.33
2018-07-13T18:35:39.325Z,23.33
2018-07-13T18:38:08.555Z,38.63
2018-07-13T18:40:37.661Z,18.77
2018-07-13T18:43:06.866Z,18.83
2018-07-13T18:45:36.012Z,21.13
2018-07-13T18:48:05.178Z,22.90
2018-07-13T18:50:34.302Z,22.80
2018-07-13T18:53:03.488Z,31.07
2018-07-13T18:55:32.591Z,27.67
2018-07-13T18:58:01.649Z,21.50
2018-07-13T19:00:30.796Z,25.77
2018-07-13T19:02:59.930Z,29.23
2018-07-13T19:05:29.056Z,21.53
2018-07-13T19:07:58.204Z,23.27
2018-07-13T19:10:27.317Z,27.90
2018-07-13T19:12:56.433Z,27.00
2018-07-13T19:15:25.560Z,26.20
2018-07-13T19:17:54.720Z,26.70
2018-07-13T19:20:25.982Z,24.60
2018-07-13T19:22:55.292Z,25.00
2018-07-13T19:25:24.423Z,24.53
2018-07-13T19:27:53.720Z,27.10
2018-07-13T19:30:23.004Z,23.47
2018-07-13T19:32:52.054Z,29.87
2018-07-13T19:35:21.175Z,24.17
2018-07-13T19:37:50.346Z,21.73
2018-07-13T19:40:19.510Z,23.17
2018-07-13T19:42:48.483Z,23.57
2018-07-13T19:45:17.606Z,30.53
2018-07-13T19:47:46.858Z,30.47
2018-07-13T19:50:15.977Z,28.73
2018-07-13T19:52:45.195Z,26.40
2018-07-13T19:55:14.273Z,25.80
2018-07-13T19:57:43.380Z,29.53
2018-07-13T20:00:12.546Z,28.00
2018-07-13T20:02:41.629Z,22.77
2018-07-13T20:05:10.763Z,26.17
2018-07-13T20:07:39.923Z,29.23
2018-07-13T20:10:09.128Z,29.20
2018-07-13T20:12:38.075Z,21.97
2018-07-13T20:15:07.208Z,26.73
2018-07-13T20:17:36.375Z,24.50
2018-07-13T20:20:08.260Z,23.00
2018-07-13T20:22:37.907Z,30.20
2018-07-13T20:25:07.702Z,26.90
2018-07-13T20:27:37.813Z,22.40
2018-07-13T20:30:07.347Z,30.70
2018-07-13T20:32:36.486Z,23.13
2018-07-13T20:35:05.646Z,23.17
2018-07-13T20:37:35.213Z,26.60
2018-07-13T20:40:04.331Z,23.80
2018-07-13T20:42:33.431Z,19.50
2018-07-13T20:45:02.572Z,21.47
2018-07-13T20:47:31.752Z,24.40
2018-07-13T20:50:00.836Z,21.03
2018-07-13T20:52:29.864Z,20.03
2018-07-13T20:54:59.092Z,29.93
2018-07-13T20:57:28.243Z,24.50
2018-07-13T20:59:57.402Z,20.07
2018-07-13T21:02:26.574Z,16.90
2018-07-13T21:04:55.683Z,27.57
2018-07-13T21:07:24.809Z,17.67
2018-07-13T21:09:53.946Z,17.43
2018-07-13T21:12:23.170Z,16.57
2018-07-13T21:14:52.287Z,19.17
2018-07-13T21:17:21.366Z,23.80
2018-07-13T21:19:50.496Z,16.60
2018-07-13T21:22:19.553Z,19.23
2018-07-13T21:24:48.688Z,18.33
2018-07-13T21:27:17.915Z,23.37
2018-07-13T21:29:47.106Z,18.70
2018-07-13T21:32:16.260Z,19.93
2018-07-13T21:34:45.449Z,16.37
2018-07-13T21:37:14.536Z,20.73
2018-07-13T21:39:43.685Z,19.10
2018-07-13T21:42:12.826Z,15.57
2018-07-13T21:44:41.977Z,20.27
2018-07-13T21:47:11.364Z,18.03
2018-07-13T21:49:40.486Z,19.60
2018-07-13T21:52:09.590Z,24.33
2018-07-13T21:54:38.722Z,17.40
2018-07-13T21:57:07.939Z,16.07
2018-07-13T21:59:37.142Z,20.60
2018-07-13T22:02:06.311Z,18.97
2018-07-13T22:04:35.454Z,20.23
2018-07-13T22:07:04.631Z,18.47
2018-07-13T22:09:33.756Z,17.33
2018-07-13T22:12:02.912Z,16.73
2018-07-13T22:14:32.061Z,16.10
2018-07-13T22:17:01.204Z,17.70
2018-07-13T22:19:30.295Z,20.67
2018-07-13T22:21:59.434Z,21.67
2018-07-13T22:24:28.525Z,21.60
2018-07-13T22:26:57.675Z,14.57
2018-07-13T22:29:26.779Z,23.13
2018-07-13T22:31:55.927Z,21.47
2018-07-13T22:34:25.035Z,20.97
2018-07-13T22:36:54.215Z,25.90
2018-07-13T22:39:23.294Z,16.07
2018-07-13T22:41:52.184Z,21.03
2018-07-13T22:44:21.324Z,25.80
2018-07-13T22:46:50.385Z,23.17
2018-07-13T22:49:19.602Z,17.73
2018-07-13T22:51:48.760Z,23.57
2018-07-13T22:54:17.925Z,21.60
2018-07-13T22:56:47.005Z,19.23
2018-07-13T22:59:16.215Z,20.17
2018-07-13T23:01:45.397Z,20.60
2018-07-13T23:04:14.510Z,15.83
2018-07-13T23:06:43.636Z,17.33
2018-07-13T23:09:12.832Z,19.40
2018-07-13T23:11:41.947Z,29.40
2018-07-13T23:14:11.081Z,13.50
2018-07-13T23:16:40.207Z,21.20
2018-07-13T23:19:09.340Z,17.60
2018-07-13T23:21:38.531Z,17.43
2018-07-13T23:24:07.690Z,19.27
2018-07-13T23:26:36.825Z,18.87
2018-07-13T23:29:06.032Z,26.23
2018-07-13T23:31:35.141Z,30.30
2018-07-13T23:34:04.250Z,19.30
2018-07-13T23:36:33.321Z,17.73
2018-07-13T23:39:02.475Z,21.20
2018-07-13T23:41:31.616Z,26.10
2018-07-13T23:44:00.702Z,19.03
2018-07-13T23:46:29.836Z,28.37
2018-07-13T23:48:58.973Z,21.33
2018-07-13T23:51:28.655Z,19.30
2018-07-13T23:53:57.749Z,23.10
2018-07-13T23:56:26.844Z,22.10
2018-07-13T23:58:56.008Z,23.30
